Time;durP1;ratioP1;P1;durP2;ratioP2;P2;SDS_P1;SDS_P2;PMS_P1;PMS_P2;Temp;Humidity;BMP_temperature;BMP_pressure;BME280_temperature;BME280_humidity;BME280_pressure;Samples;Min_cycle;Max_cycle;Signal;HPM_P1;HPM_P2
2022/02/14 00:01:49;;;;;;;12.13;3.47;;;9.50;99.90;;;;;;5035193;28;20119;-84
2022/02/14 00:04:15;;;;;;;9.60;3.60;;;9.50;99.90;;;;;;5018576;28;20028;-84
2022/02/14 00:06:40;;;;;;;10.07;4.47;;;9.50;99.90;;;;;;5035309;28;20516;-84
2022/02/14 00:09:06;;;;;;;11.80;3.53;;;9.50;99.90;;;;;;5018580;28;20025;-84
2022/02/14 00:11:32;;;;;;;7.80;3.22;;;9.40;99.90;;;;;;5035259;28;20470;-84
2022/02/14 00:13:57;;;;;;;7.82;3.40;;;9.50;99.90;;;;;;5051202;28;20170;-85
2022/02/14 00:16:23;;;;;;;8.00;3.47;;;9.50;99.90;;;;;;5018425;28;20052;-85
2022/02/14 00:18:48;;;;;;;9.25;3.50;;;9.50;99.90;;;;;;5051430;28;20036;-84
2022/02/14 00:21:14;;;;;;;7.25;3.60;;;9.60;99.90;;;;;;5034697;28;20102;-85
2022/02/14 00:23:40;;;;;;;9.85;3.10;;;9.50;99.90;;;;;;5051833;28;20362;-85
2022/02/14 00:26:05;;;;;;;9.15;3.30;;;9.60;99.90;;;;;;5034833;28;20025;-84
2022/02/14 00:28:32;;;;;;;9.18;3.25;;;9.60;99.90;;;;;;5018489;28;20025;-84
2022/02/14 00:30:58;;;;;;;9.07;3.13;;;9.60;99.90;;;;;;5050820;28;20033;-85
2022/02/14 00:33:24;;;;;;;8.68;2.95;;;9.70;99.90;;;;;;5034723;28;20124;-85
2022/02/14 00:35:50;;;;;;;7.20;2.80;;;9.70;99.90;;;;;;5018641;28;20021;-85
2022/02/14 00:38:15;;;;;;;6.10;3.00;;;9.70;99.90;;;;;;5034625;28;20040;-85
2022/02/14 00:40:41;;;;;;;7.93;3.20;;;9.80;99.90;;;;;;5051365;28;20520;-85
2022/02/14 00:43:07;;;;;;;7.35;2.85;;;9.80;99.90;;;;;;5049995;28;20135;-85
2022/02/14 00:45:32;;;;;;;8.05;3.17;;;9.90;99.90;;;;;;5069986;28;20027;-85
2022/02/14 00:47:59;;;;;;;13.43;3.53;;;9.90;99.90;;;;;;5054493;28;20049;-85
2022/02/14 00:50:25;;;;;;;6.80;3.58;;;9.90;99.90;;;;;;5054813;28;20483;-84
2022/02/14 00:52:51;;;;;;;9.98;2.67;;;10.00;99.90;;;;;;5021904;28;20473;-85
2022/02/14 00:55:17;;;;;;;8.38;3.85;;;10.00;99.90;;;;;;5038417;28;20032;-85
2022/02/14 00:57:43;;;;;;;10.15;2.83;;;10.10;99.90;;;;;;5038207;28;20104;-85
2022/02/14 01:00:14;;;;;;;5.35;2.53;;;10.10;99.90;;;;;;5054518;28;20051;-85
2022/02/14 01:02:40;;;;;;;9.60;3.58;;;10.10;99.90;;;;;;5054688;28;20032;-86
2022/02/14 01:05:07;;;;;;;11.02;3.45;;;10.10;99.90;;;;;;5072272;28;20028;-85
2022/02/14 01:07:33;;;;;;;8.98;3.45;;;10.10;99.90;;;;;;5072455;28;20031;-85
2022/02/14 01:10:01;;;;;;;16.05;2.95;;;10.10;99.90;;;;;;5037915;28;20469;-85
2022/02/14 01:12:28;;;;;;;6.07;3.00;;;10.10;99.90;;;;;;5054389;28;20033;-85
2022/02/14 01:14:54;;;;;;;9.00;2.70;;;10.10;99.90;;;;;;5054538;28;20024;-85
2022/02/14 01:17:21;;;;;;;8.10;2.85;;;10.20;99.90;;;;;;5054396;28;20115;-85
2022/02/14 01:19:46;;;;;;;5.82;2.65;;;10.20;99.90;;;;;;5037885;28;20496;-85
2022/02/14 01:22:13;;;;;;;8.50;2.50;;;10.10;99.90;;;;;;5037558;28;20059;-85
2022/02/14 01:24:40;;;;;;;5.13;2.42;;;10.20;99.90;;;;;;5054534;28;20108;-86
2022/02/14 01:27:06;;;;;;;6.90;3.15;;;10.10;99.90;;;;;;5058251;28;20055;-84
2022/02/14 01:29:33;;;;;;;7.07;2.60;;;10.20;99.90;;;;;;5061347;28;20032;-84
2022/02/14 01:31:59;;;;;;;6.22;2.72;;;10.20;99.90;;;;;;5077406;28;20033;-85
2022/02/14 01:34:25;;;;;;;7.80;2.53;;;10.10;99.90;;;;;;5042896;28;20035;-85
2022/02/14 01:36:50;;;;;;;9.52;3.45;;;10.20;99.90;;;;;;5059479;28;20477;-84
2022/02/14 01:39:25;;;;;;;8.98;2.67;;;10.20;99.90;;;;;;5043314;28;20036;-84
2022/02/14 01:41:51;;;;;;;8.63;2.45;;;10.30;99.90;;;;;;5059176;28;20033;-84
2022/02/14 01:44:38;;;;;;;7.47;2.40;;;10.30;99.90;;;;;;5059342;28;20039;-84
2022/02/14 01:47:05;;;;;;;11.15;2.80;;;10.40;99.90;;;;;;5059010;28;20044;-83
2022/02/14 01:49:31;;;;;;;8.32;2.40;;;10.40;99.90;;;;;;5058616;28;20078;-84
2022/02/14 01:51:59;;;;;;;7.70;3.10;;;10.40;99.90;;;;;;5042010;28;20034;-84
2022/02/14 01:54:25;;;;;;;6.82;2.20;;;10.40;99.90;;;;;;5026579;28;20047;-84
2022/02/14 01:56:51;;;;;;;7.13;2.25;;;10.40;99.90;;;;;;5042545;28;20024;-83
2022/02/14 01:59:16;;;;;;;8.10;2.22;;;10.50;99.90;;;;;;5025809;28;20039;-84
2022/02/14 02:01:42;;;;;;;6.13;2.67;;;10.50;99.90;;;;;;5042345;28;20032;-84
2022/02/14 02:04:12;;;;;;;7.15;2.63;;;10.50;99.90;;;;;;5042119;28;20043;-85
2022/02/14 02:06:37;;;;;;;5.25;2.20;;;10.50;99.90;;;;;;5058574;28;20025;-84
2022/02/14 02:09:03;;;;;;;5.03;2.45;;;10.50;99.90;;;;;;5041762;28;20036;-84
2022/02/14 02:14:13;;;;;;;6.28;2.38;;;10.50;99.90;;;;;;5061200;28;20059;-84
2022/02/14 02:16:38;;;;;;;7.30;2.17;;;10.40;99.90;;;;;;5058177;28;20381;-84
2022/02/14 02:19:04;;;;;;;6.43;2.40;;;10.40;99.90;;;;;;5041915;28;20031;-84
2022/02/14 02:21:33;;;;;;;9.45;2.60;;;10.40;99.90;;;;;;5041930;28;20039;-84
2022/02/14 02:23:59;;;;;;;10.07;2.35;;;10.40;99.90;;;;;;5042359;28;20039;-84
2022/02/14 02:26:31;;;;;;;8.30;2.85;;;10.30;99.90;;;;;;5025486;28;20119;-84
2022/02/14 02:29:03;;;;;;;7.38;3.65;;;10.30;99.90;;;;;;5057978;28;20016;-84
2022/02/14 02:31:31;;;;;;;6.72;2.33;;;10.30;99.90;;;;;;5057705;28;20036;-83
2022/02/14 02:34:12;;;;;;;;;;;;;;;;;;;;;
2022/02/14 02:36:56;;;;;;;6.60;2.55;;;10.30;99.90;;;;;;5076712;28;20023;-84
2022/02/14 02:39:29;;;;;;;8.35;2.40;;;10.30;99.90;;;;;;5058120;28;20109;-84
2022/02/14 02:41:58;;;;;;;7.97;2.20;;;10.30;99.90;;;;;;5058305;28;20020;-84
2022/02/14 02:44:27;;;;;;;8.25;2.22;;;10.30;99.90;;;;;;5057730;28;20020;-84
2022/02/14 02:46:52;;;;;;;6.32;2.08;;;10.30;99.90;;;;;;5057440;28;20136;-84
2022/02/14 02:49:22;;;;;;;7.82;2.47;;;10.30;99.90;;;;;;5041208;28;20079;-84
2022/02/14 02:51:49;;;;;;;8.05;2.90;;;10.30;99.90;;;;;;5057609;28;20027;-84
2022/02/14 02:54:21;;;;;;;5.63;2.20;;;10.30;99.90;;;;;;5058152;28;20110;-84
2022/02/14 02:56:51;;;;;;;5.75;2.00;;;10.30;99.90;;;;;;5059056;28;20016;-84
2022/02/14 02:59:17;;;;;;;7.90;2.05;;;10.30;99.90;;;;;;5069485;28;20021;-84
2022/02/14 03:01:44;;;;;;;6.40;2.15;;;10.30;99.90;;;;;;5066846;28;20026;-84
2022/02/14 03:04:18;;;;;;;4.30;1.80;;;10.30;99.90;;;;;;5059945;28;20035;-83
2022/02/14 03:06:45;;;;;;;5.45;2.22;;;10.30;99.90;;;;;;5057743;28;20092;-84
2022/02/14 03:09:14;;;;;;;8.10;2.20;;;10.30;99.90;;;;;;5057610;28;20131;-84
2022/02/14 03:15:03;;;;;;;7.63;2.13;;;10.30;99.90;;;;;;4999814;28;20422;-85
2022/02/14 03:17:29;;;;;;;6.57;2.13;;;10.30;99.90;;;;;;5041058;28;20028;-83
2022/02/14 03:19:55;;;;;;;6.45;2.05;;;10.30;99.90;;;;;;5057468;28;20013;-85
2022/02/14 03:22:23;;;;;;;5.93;1.90;;;10.30;99.90;;;;;;5055166;28;20033;-84
2022/02/14 03:24:51;;;;;;;6.50;2.20;;;10.40;99.90;;;;;;5057407;28;20078;-83
2022/02/14 03:27:20;;;;;;;4.28;1.92;;;10.30;99.90;;;;;;5057324;28;20119;-84
2022/02/14 03:29:45;;;;;;;6.78;2.30;;;10.40;99.90;;;;;;5041077;28;20032;-84
2022/02/14 03:32:16;;;;;;;7.30;1.85;;;10.40;99.90;;;;;;5056867;28;20099;-86
2022/02/14 03:34:41;;;;;;;7.05;2.22;;;10.40;99.90;;;;;;5074675;28;20037;-84
2022/02/14 03:37:12;;;;;;;6.85;2.63;;;10.50;99.90;;;;;;5057287;28;20377;-84
2022/02/14 03:43:13;;;;;;;6.28;1.98;;;10.50;99.90;;;;;;5074911;28;20558;-84
2022/02/14 03:45:41;;;;;;;6.32;1.85;;;10.50;99.90;;;;;;5040149;28;20123;-84
2022/02/14 03:48:08;;;;;;;6.57;2.08;;;10.60;99.90;;;;;;5056175;28;20202;-84
2022/02/14 03:50:34;;;;;;;6.32;1.80;;;10.60;99.90;;;;;;5056931;28;20027;-85
2022/02/14 03:53:00;;;;;;;8.05;1.80;;;10.70;99.90;;;;;;5055993;28;20401;-83
2022/02/14 03:55:29;;;;;;;8.48;2.10;;;10.70;99.90;;;;;;5056706;28;20020;-85
2022/02/14 03:57:55;;;;;;;6.57;2.30;;;10.80;99.90;;;;;;5040545;28;20035;-84
2022/02/14 04:00:22;;;;;;;5.88;1.90;;;10.80;99.90;;;;;;5056553;28;20028;-85
2022/02/14 04:02:48;;;;;;;7.03;1.80;;;10.80;99.90;;;;;;5074713;28;20086;-84
2022/02/14 04:05:19;;;;;;;9.13;2.00;;;10.90;99.90;;;;;;5039896;28;20098;-84
2022/02/14 04:07:46;;;;;;;7.78;2.17;;;10.90;99.90;;;;;;5040296;28;20025;-84
2022/02/14 04:10:14;;;;;;;7.88;1.80;;;10.90;99.90;;;;;;5039707;28;20029;-85
2022/02/14 04:12:40;;;;;;;6.80;1.92;;;10.90;99.90;;;;;;5056192;28;20029;-84
2022/02/14 04:15:07;;;;;;;6.10;2.17;;;11.00;99.90;;;;;;5039716;28;20083;-84
2022/02/14 04:17:33;;;;;;;6.70;2.75;;;11.00;99.90;;;;;;5056347;28;20029;-85
2022/02/14 04:19:58;;;;;;;4.20;1.65;;;11.00;99.90;;;;;;5074483;28;20036;-84
2022/02/14 04:22:24;;;;;;;4.57;1.95;;;11.10;99.90;;;;;;5056630;28;20021;-85
2022/02/14 04:24:50;;;;;;;3.63;1.70;;;11.10;99.90;;;;;;5056670;28;20358;-85
2022/02/14 04:27:16;;;;;;;4.43;1.55;;;11.20;99.90;;;;;;5040080;28;20032;-84
2022/02/14 04:29:42;;;;;;;8.68;1.58;;;11.20;99.90;;;;;;5056564;28;20495;-84
2022/02/14 04:32:08;;;;;;;11.30;2.00;;;11.10;99.90;;;;;;5039786;28;20025;-84
2022/02/14 04:34:39;;;;;;;6.03;1.77;;;11.20;99.90;;;;;;5039550;28;20099;-84
2022/02/14 04:40:08;;;;;;;3.50;1.58;;;11.20;99.90;;;;;;5074213;28;19912;-84
2022/02/14 04:42:34;;;;;;;5.57;2.08;;;11.20;99.90;;;;;;5056300;28;20043;-84
2022/02/14 04:45:01;;;;;;;9.60;2.17;;;11.20;99.90;;;;;;5039137;28;20449;-84
2022/02/14 04:47:27;;;;;;;7.05;1.92;;;11.20;99.90;;;;;;5039150;28;20048;-84
2022/02/14 04:53:20;;;;;;;5.75;1.83;;;11.20;99.90;;;;;;5074391;28;20035;-84
2022/02/14 04:55:46;;;;;;;5.00;1.70;;;11.20;99.90;;;;;;5039838;28;20029;-84
2022/02/14 04:58:12;;;;;;;6.45;1.77;;;11.30;99.90;;;;;;5023104;28;20059;-84
2022/02/14 05:00:37;;;;;;;3.38;1.63;;;11.20;99.90;;;;;;5025502;28;20045;-84
2022/02/14 05:03:03;;;;;;;4.57;1.67;;;11.30;99.90;;;;;;5044332;28;20040;-84
2022/02/14 05:05:29;;;;;;;5.18;1.60;;;11.30;99.90;;;;;;5045036;28;20033;-85
2022/02/14 05:08:07;;;;;;;;;;;;;;;;;;;;;
2022/02/14 05:17:48;;;;;;;6.47;2.03;;;11.30;99.90;;;;;;5093170;28;20048;-83
2022/02/14 05:20:14;;;;;;;6.50;1.70;;;11.30;99.90;;;;;;5064923;28;20060;-84
2022/02/14 05:22:40;;;;;;;3.92;1.40;;;11.30;99.90;;;;;;5083160;28;20350;-84
2022/02/14 05:25:06;;;;;;;5.40;2.45;;;11.30;99.90;;;;;;5056288;28;20082;-84
2022/02/14 05:27:31;;;;;;;5.90;1.85;;;11.30;99.90;;;;;;5071674;28;20020;-85
2022/02/14 05:29:57;;;;;;;6.15;1.75;;;11.30;99.90;;;;;;5044423;28;20029;-86
2022/02/14 05:32:28;;;;;;;4.15;1.42;;;11.30;99.90;;;;;;5060757;28;20031;-84
2022/02/14 05:34:54;;;;;;;3.60;2.03;;;11.40;99.90;;;;;;5043855;28;20086;-85
2022/02/14 05:37:19;;;;;;;2.45;1.40;;;11.30;99.90;;;;;;5043121;28;20025;-84
2022/02/14 05:39:46;;;;;;;4.97;1.40;;;11.30;99.90;;;;;;5026242;28;20146;-85
2022/02/14 05:42:13;;;;;;;4.28;1.52;;;11.30;99.90;;;;;;5059806;28;20558;-84
2022/02/14 05:44:39;;;;;;;2.85;1.40;;;11.40;99.90;;;;;;5059402;28;20028;-84
2022/02/14 05:47:05;;;;;;;2.70;1.27;;;11.40;99.90;;;;;;5042805;28;20067;-84
2022/02/14 05:49:31;;;;;;;4.95;1.60;;;11.40;99.90;;;;;;5027325;28;20037;-86
2022/02/14 05:51:56;;;;;;;7.07;1.80;;;11.40;99.90;;;;;;5043318;28;20025;-85
2022/02/14 05:54:22;;;;;;;5.93;1.98;;;11.40;99.90;;;;;;5059360;28;20505;-84
2022/02/14 05:56:48;;;;;;;3.80;1.60;;;11.40;99.90;;;;;;5059166;28;20028;-84
2022/02/14 05:59:17;;;;;;;7.03;1.85;;;11.40;99.90;;;;;;5058915;28;20078;-85
2022/02/14 06:01:42;;;;;;;5.72;1.67;;;11.40;99.90;;;;;;5041894;28;20503;-84
2022/02/14 06:04:29;;;;;;;4.60;1.48;;;11.50;99.90;;;;;;5066163;28;20056;-84
2022/02/14 06:06:57;;;;;;;5.75;1.50;;;11.50;99.90;;;;;;5053821;28;20031;-85
2022/02/14 06:09:40;;;;;;;5.18;1.40;;;11.50;99.90;;;;;;5048398;28;20047;-86
2022/02/14 06:12:30;;;;;;;5.80;1.77;;;11.40;99.90;;;;;;5060173;28;20476;-85
2022/02/14 06:14:57;;;;;;;3.33;1.35;;;11.50;99.90;;;;;;5062033;28;20123;-85
2022/02/14 06:17:26;;;;;;;4.32;1.50;;;11.40;99.90;;;;;;5058902;28;20114;-85
2022/02/14 06:19:54;;;;;;;5.55;1.50;;;11.40;99.90;;;;;;5042322;28;20032;-85
2022/02/14 06:22:25;;;;;;;4.75;1.50;;;11.50;99.90;;;;;;5058427;28;20346;-85
2022/02/14 06:24:59;;;;;;;3.17;1.40;;;11.50;99.90;;;;;;5058477;28;20060;-84
2022/02/14 06:27:36;;;;;;;4.55;1.58;;;11.50;99.90;;;;;;4995773;28;20682;-84
2022/02/14 06:30:06;;;;;;;3.63;1.35;;;11.40;99.90;;;;;;5045910;28;20045;-85
2022/02/14 06:32:33;;;;;;;4.88;1.60;;;11.40;99.90;;;;;;5042691;28;20029;-85
2022/02/14 06:35:07;;;;;;;6.15;1.58;;;11.50;99.90;;;;;;5042393;28;20032;-85
2022/02/14 06:37:46;;;;;;;;;;;;;;;;;;;;;
2022/02/14 06:40:46;;;;;;;6.25;1.90;;;11.50;99.90;;;;;;4994872;28;20026;-85
2022/02/14 06:57:04;;;;;;;6.60;2.10;;;11.40;99.90;;;;;;5055868;28;20083;-84
2022/02/14 07:03:27;;;;;;;2.85;1.45;;;11.50;99.90;;;;;;5055833;28;20499;-85
2022/02/14 07:09:52;;;;;;;4.78;1.75;;;11.50;99.90;;;;;;5058227;28;20028;-85
2022/02/14 07:12:18;;;;;;;6.30;1.70;;;11.50;99.90;;;;;;5021254;28;20033;-85
2022/02/14 07:22:00;;;;;;;10.02;1.90;;;11.60;99.90;;;;;;5058394;28;20021;-84
2022/02/14 07:28:07;;;;;;;7.50;1.60;;;11.70;99.90;;;;;;5058877;28;20068;-85
2022/02/14 07:30:33;;;;;;;5.22;1.40;;;11.70;99.90;;;;;;5037639;28;20032;-83
2022/02/14 07:33:08;;;;;;;6.20;1.60;;;11.70;99.90;;;;;;5021574;28;20040;-85
2022/02/14 07:35:56;;;;;;;4.75;1.73;;;11.80;99.90;;;;;;5055335;28;20104;-85
2022/02/14 07:41:45;;;;;;;4.32;1.98;;;11.80;99.90;;;;;;4974116;28;20058;-85
2022/02/14 07:44:20;;;;;;;4.57;1.50;;;11.80;99.90;;;;;;5014770;28;20068;-84
2022/02/14 07:47:03;;;;;;;4.72;1.70;;;11.80;99.90;;;;;;5038034;28;20111;-86
2022/02/14 07:49:34;;;;;;;5.22;1.73;;;11.80;99.90;;;;;;5056121;28;20080;-85
2022/02/14 07:52:25;;;;;;;4.80;1.63;;;11.80;99.90;;;;;;5028168;28;20150;-87
2022/02/14 07:55:06;;;;;;;;;;;;;;;;;;;;;
2022/02/14 08:04:48;;;;;;;3.75;1.80;;;11.70;99.90;;;;;;4999362;28;20030;-86
2022/02/14 08:10:48;;;;;;;5.53;1.85;;;11.70;99.90;;;;;;4995179;28;20073;-87
2022/02/14 08:16:45;;;;;;;;;;;11.70;99.90;;;;;;4996839;28;20105;-86
2022/02/14 08:25:55;;;;;;;2.92;0.80;;;11.60;99.90;;;;;;4996792;28;19913;-86
2022/02/14 08:31:45;;;;;;;1.35;0.70;;;11.20;99.90;;;;;;5089943;28;20081;-86
2022/02/14 08:37:33;;;;;;;2.15;0.77;;;10.90;99.90;;;;;;5098859;28;20494;-85
2022/02/14 08:39:59;;;;;;;1.83;0.70;;;10.80;99.90;;;;;;5047219;28;20036;-85
2022/02/14 08:42:25;;;;;;;0.63;0.60;;;10.70;99.90;;;;;;5063764;28;20032;-85
2022/02/14 08:44:50;;;;;;;0.80;0.40;;;10.60;99.90;;;;;;5063743;28;20031;-86
2022/02/14 08:47:31;;;;;;;2.38;0.52;;;10.50;99.90;;;;;;5098714;28;20099;-90
2022/02/14 08:49:59;;;;;;;1.85;0.57;;;10.50;99.90;;;;;;5064073;28;20088;-86
2022/02/14 08:52:28;;;;;;;1.60;0.40;;;10.50;99.90;;;;;;5080910;28;20073;-86
2022/02/14 08:54:57;;;;;;;1.23;0.50;;;10.40;99.90;;;;;;5098671;28;20036;-90
2022/02/14 08:57:32;;;;;;;2.65;1.05;;;10.40;99.90;;;;;;5099397;28;20119;-89
2022/02/14 08:59:57;;;;;;;2.28;0.50;;;10.30;99.90;;;;;;5081448;28;20028;-88
2022/02/14 09:02:31;;;;;;;0.88;0.40;;;10.30;99.90;;;;;;5098946;28;20026;-87
2022/02/14 09:05:07;;;;;;;1.77;0.43;;;10.30;99.90;;;;;;5064472;28;20105;-88
2022/02/14 09:10:30;;;;;;;1.08;0.63;;;10.30;99.90;;;;;;5099398;28;20051;-85
2022/02/14 09:12:56;;;;;;;1.90;0.60;;;10.20;99.90;;;;;;5090101;28;20085;-85
2022/02/14 09:15:27;;;;;;;0.55;0.38;;;10.20;99.90;;;;;;5082114;28;20050;-85
2022/02/14 09:17:53;;;;;;;;;;;10.20;99.90;;;;;;5064013;28;20040;-88
2022/02/14 09:20:23;;;;;;;1.40;0.55;;;10.20;99.90;;;;;;5081157;28;19995;-85
2022/02/14 09:26:31;;;;;;;1.65;0.32;;;10.20;99.90;;;;;;5098402;28;20066;-85
2022/02/14 09:32:26;;;;;;;1.27;0.45;;;10.10;99.90;;;;;;5098549;28;20089;-85
2022/02/14 09:34:55;;;;;;;1.42;0.40;;;10.10;99.90;;;;;;5062841;28;20036;-85
2022/02/14 09:37:24;;;;;;;2.08;0.60;;;10.10;99.90;;;;;;5063400;28;20028;-86
2022/02/14 09:46:47;;;;;;;1.20;0.75;;;10.20;99.90;;;;;;5096856;28;20028;-87
2022/02/14 09:53:28;;;;;;;3.33;1.65;;;10.30;99.90;;;;;;5055259;28;20102;-86
2022/02/14 09:55:54;;;;;;;3.72;1.98;;;10.40;99.90;;;;;;5039001;28;20102;-86
2022/02/14 09:58:19;;;;;;;3.42;1.90;;;10.50;99.90;;;;;;5006314;28;20422;-86
2022/02/14 10:00:45;;;;;;;3.13;1.80;;;10.60;99.90;;;;;;5014551;28;20040;-86
2022/02/14 10:03:13;;;;;;;2.83;2.03;;;10.60;99.90;;;;;;5021866;28;20474;-87
2022/02/14 10:05:52;;;;;;;3.10;2.17;;;10.70;99.90;;;;;;5039327;28;20032;-87
2022/02/14 10:11:56;;;;;;;3.22;2.08;;;10.90;99.90;;;;;;5056905;28;20024;-86
2022/02/14 10:18:39;;;;;;;4.20;2.10;;;11.00;99.90;;;;;;5056647;28;20442;-86
2022/02/14 10:21:28;;;;;;;3.25;2.05;;;11.10;99.90;;;;;;5055575;28;20108;-87
2022/02/14 10:31:08;;;;;;;5.47;2.35;;;11.30;99.90;;;;;;5016243;28;20037;-86
2022/02/14 10:36:55;;;;;;;2.78;2.22;;;11.30;99.90;;;;;;5015017;28;20033;-85
2022/02/14 10:39:24;;;;;;;3.03;2.13;;;11.40;99.90;;;;;;4978552;28;20125;-87
2022/02/14 10:41:54;;;;;;;4.03;2.53;;;11.50;99.90;;;;;;4994389;28;20025;-86
2022/02/14 10:47:47;;;;;;;4.72;2.50;;;11.70;99.90;;;;;;5014508;28;20057;-86
2022/02/14 10:54:18;;;;;;;4.35;2.40;;;11.80;99.90;;;;;;5033109;28;20056;-86
2022/02/14 10:57:03;;;;;;;5.63;2.60;;;11.90;99.90;;;;;;5001517;28;20049;-88
2022/02/14 10:59:29;;;;;;;2.67;2.28;;;11.90;99.90;;;;;;5017271;28;20033;-86
2022/02/14 11:01:55;;;;;;;3.40;2.20;;;11.90;99.90;;;;;;5017220;28;20107;-86
2022/02/14 11:04:23;;;;;;;5.35;2.40;;;11.90;99.90;;;;;;5017315;28;20037;-86
2022/02/14 11:06:50;;;;;;;4.82;2.35;;;11.90;99.90;;;;;;5001111;28;20030;-85
2022/02/14 11:09:17;;;;;;;9.82;3.00;;;11.90;99.90;;;;;;5038988;28;20177;-86
2022/02/14 11:11:54;;;;;;;3.90;1.92;;;11.90;99.90;;;;;;5075416;28;20111;-87
2022/02/14 11:21:09;;;;;;;4.45;2.03;;;11.90;99.90;;;;;;4975032;28;20101;-87
2022/02/14 11:27:18;;;;;;;5.38;1.63;;;11.90;99.90;;;;;;4974931;28;20029;-85
2022/02/14 11:33:22;;;;;;;5.55;1.70;;;12.10;99.90;;;;;;5033637;28;20520;-86
2022/02/14 11:39:33;;;;;;;4.07;1.80;;;12.20;99.90;;;;;;4975159;28;20111;-85
2022/02/14 11:45:32;;;;;;;4.60;1.50;;;12.20;99.90;;;;;;5013925;28;20033;-87
2022/02/14 11:52:12;;;;;;;3.83;1.58;;;12.30;99.90;;;;;;4917651;29;20035;-85
2022/02/14 12:11:01;;;;;;;3.55;1.60;;;12.40;99.90;;;;;;4917088;29;20339;-87
2022/02/14 12:13:34;;;;;;;4.65;1.48;;;12.40;99.90;;;;;;4913775;29;20051;-86
2022/02/14 12:21:45;;;;;;;5.47;1.52;;;12.50;99.90;;;;;;5056819;28;20558;-84
2022/02/14 12:24:23;;;;;;;3.65;1.45;;;12.60;99.90;;;;;;5036335;28;20028;-88
2022/02/14 12:27:00;;;;;;;2.25;1.40;;;12.70;99.90;;;;;;5054939;28;20024;-85
2022/02/14 12:32:14;;;;;;;3.55;1.50;;;12.80;99.90;;;;;;5055229;28;20120;-85
2022/02/14 12:42:28;;;;;;;3.35;1.58;;;13.20;99.90;;;;;;5053545;28;20036;-84
2022/02/14 12:59:09;;;;;;;3.72;1.38;;;13.00;99.90;;;;;;5006108;28;20506;-85
2022/02/14 13:05:36;;;;;;;4.65;1.35;;;12.80;99.80;;;;;;5012872;28;20033;-85
2022/02/14 13:25:05;;;;;;;3.60;0.90;;;12.70;99.90;;;;;;4974129;28;20034;-85
2022/02/14 13:38:01;;;;;;;3.78;0.90;;;13.20;99.50;;;;;;4938125;29;20085;-85
2022/02/14 13:40:32;;;;;;;5.20;1.17;;;13.20;98.90;;;;;;4979930;28;20101;-85
2022/02/14 13:43:33;;;;;;;4.22;1.75;;;13.10;98.80;;;;;;4979753;28;20105;-85
2022/02/14 13:49:39;;;;;;;;;;;13.00;98.40;;;;;;5021404;28;20032;-85
2022/02/14 13:55:42;;;;;;;6.28;1.60;;;12.80;99.20;;;;;;5077274;28;20047;-85
2022/02/14 14:01:53;;;;;;;5.00;1.30;;;12.60;99.80;;;;;;5076717;28;20414;-85
2022/02/14 14:07:56;;;;;;;3.45;1.15;;;12.40;99.90;;;;;;5077116;28;20393;-87
2022/02/14 14:13:44;;;;;;;2.05;0.70;;;12.30;99.90;;;;;;5096729;28;20043;-87
2022/02/14 14:16:12;;;;;;;3.22;0.95;;;12.20;99.90;;;;;;5045672;28;20038;-86
2022/02/14 14:18:55;;;;;;;3.53;1.00;;;12.20;99.90;;;;;;5062381;28;20498;-89
2022/02/14 14:46:57;;;;;;;7.05;1.42;;;12.40;99.90;;;;;;4996043;28;20088;-87
2022/02/14 14:49:25;;;;;;;;;;;12.30;99.90;;;;;;5054431;28;20063;-87
2022/02/14 14:51:56;;;;;;;6.22;1.30;;;12.30;99.90;;;;;;5076486;28;19911;-87
2022/02/14 14:54:29;;;;;;;;;;;12.30;99.90;;;;;;5060984;28;20536;-86
2022/02/14 15:03:52;;;;;;;;;;;;;;;;;;;;;
2022/02/14 15:09:52;;;;;;;;;;;12.30;99.90;;;;;;5042458;28;20175;-84
2022/02/14 15:12:18;;;;;;;5.55;1.30;;;12.30;99.90;;;;;;5093462;28;20364;-85
2022/02/14 15:14:50;;;;;;;8.32;1.50;;;12.30;99.90;;;;;;5075338;28;20060;-87
2022/02/14 15:17:21;;;;;;;6.00;1.45;;;12.30;99.90;;;;;;5068847;28;20033;-85
2022/02/14 15:19:46;;;;;;;;;;;12.40;99.90;;;;;;5046086;28;20078;-84
2022/02/14 15:22:18;;;;;;;6.25;1.40;;;12.40;99.90;;;;;;5084120;28;20388;-85
2022/02/14 15:30:58;;;;;;;;;;;12.30;99.90;;;;;;4956655;29;20057;-86
2022/02/14 15:36:54;;;;;;;5.68;1.63;;;12.10;99.90;;;;;;4982145;28;20554;-86
2022/02/14 15:39:33;;;;;;;4.72;1.42;;;12.10;99.90;;;;;;4997263;28;20050;-86
2022/02/14 15:42:13;;;;;;;;;;;12.00;99.90;;;;;;4957745;28;20133;-87
2022/02/14 15:44:44;;;;;;;4.43;1.65;;;12.00;99.90;;;;;;4980442;28;19972;-86
2022/02/14 15:47:12;;;;;;;5.40;1.60;;;11.90;99.90;;;;;;4997159;28;20038;-84
2022/02/14 15:49:45;;;;;;;6.30;1.60;;;11.90;99.90;;;;;;4996448;28;20101;-85
2022/02/14 15:52:11;;;;;;;7.07;1.90;;;11.80;99.90;;;;;;5052413;28;20470;-86
2022/02/14 15:54:57;;;;;;;5.78;1.40;;;11.80;99.90;;;;;;5056726;28;20066;-87
2022/02/14 15:57:23;;;;;;;8.00;1.70;;;11.80;99.90;;;;;;5056438;28;20560;-93
2022/02/14 16:00:17;;;;;;;7.88;2.30;;;11.70;99.90;;;;;;5057207;28;20024;-85
2022/02/14 16:02:42;;;;;;;9.00;1.60;;;11.80;99.90;;;;;;5056976;28;20231;-86
2022/02/14 16:05:09;;;;;;;10.48;2.40;;;11.70;99.90;;;;;;5056640;28;20052;-85
2022/02/14 16:07:43;;;;;;;10.95;2.58;;;11.70;99.90;;;;;;5056491;28;20017;-85
2022/02/14 16:10:21;;;;;;;12.27;2.65;;;11.70;99.90;;;;;;5024551;28;20029;-86
2022/02/14 16:12:53;;;;;;;8.05;2.53;;;11.70;99.90;;;;;;5056700;28;20121;-84
2022/02/14 16:15:22;;;;;;;5.78;1.85;;;11.70;99.90;;;;;;5056374;28;20032;-85
2022/02/14 16:17:57;;;;;;;7.80;2.53;;;11.70;99.90;;;;;;5040257;28;20048;-85
2022/02/14 16:20:23;;;;;;;8.07;2.60;;;11.70;99.90;;;;;;5040370;28;20083;-86
2022/02/14 16:23:09;;;;;;;8.95;3.10;;;11.70;99.90;;;;;;5056493;28;20376;-86
2022/02/14 16:25:38;;;;;;;8.05;3.17;;;11.70;99.90;;;;;;5055799;28;20052;-86
2022/02/14 16:28:08;;;;;;;9.35;3.15;;;11.70;99.90;;;;;;5056109;28;20025;-88
2022/02/14 16:30:34;;;;;;;7.53;2.28;;;11.70;99.90;;;;;;5055940;28;20115;-84
2022/02/14 16:33:02;;;;;;;8.40;1.58;;;11.60;99.90;;;;;;5039761;28;20086;-84
2022/02/14 16:35:28;;;;;;;10.20;1.92;;;11.60;99.90;;;;;;5039803;28;20087;-85
2022/02/14 16:37:54;;;;;;;7.72;2.25;;;11.60;99.90;;;;;;5056104;28;20416;-85
2022/02/14 16:40:20;;;;;;;8.95;1.67;;;11.50;99.90;;;;;;5056032;28;20013;-85
2022/02/14 16:46:14;;;;;;;5.47;1.58;;;11.40;99.90;;;;;;5074218;28;20098;-85
2022/02/14 16:48:40;;;;;;;6.78;1.70;;;11.30;99.90;;;;;;5056403;28;20032;-85
2022/02/14 16:51:17;;;;;;;8.02;2.40;;;11.30;99.90;;;;;;5057295;28;20078;-85
2022/02/14 16:53:45;;;;;;;9.20;2.55;;;11.30;99.90;;;;;;5055980;28;20039;-85
2022/02/14 16:56:26;;;;;;;7.50;1.88;;;11.30;99.90;;;;;;5058055;28;20028;-85
2022/02/14 16:58:52;;;;;;;6.22;1.80;;;11.20;99.90;;;;;;5045076;28;20049;-85
2022/02/14 17:01:24;;;;;;;7.07;1.92;;;11.20;99.90;;;;;;5060119;28;20075;-86
2022/02/14 17:03:50;;;;;;;11.30;2.92;;;11.20;99.90;;;;;;5060315;28;20051;-86
2022/02/14 17:09:47;;;;;;;7.75;1.70;;;11.10;99.90;;;;;;5077730;28;20047;-85
2022/02/14 17:12:13;;;;;;;7.97;1.88;;;11.00;99.90;;;;;;5059810;28;20449;-86
2022/02/14 17:14:49;;;;;;;7.00;1.85;;;11.10;99.90;;;;;;5059698;28;20067;-85
2022/02/14 17:17:15;;;;;;;6.05;1.70;;;11.10;99.90;;;;;;5059771;28;20032;-85
2022/02/14 17:23:08;;;;;;;7.78;1.90;;;11.10;99.90;;;;;;5075823;28;20025;-85
2022/02/14 17:28:57;;;;;;;7.05;1.60;;;11.10;99.90;;;;;;5077137;28;20031;-85
2022/02/14 17:31:29;;;;;;;10.05;2.25;;;11.10;99.90;;;;;;5059265;28;20063;-86
2022/02/14 17:37:09;;;;;;;10.43;2.10;;;10.90;99.90;;;;;;5067240;28;20021;-84
2022/02/14 17:39:53;;;;;;;5.35;1.42;;;10.70;99.90;;;;;;5034890;28;20072;-86
2022/02/14 17:46:03;;;;;;;6.93;1.60;;;10.50;99.90;;;;;;5036249;28;20027;-85
2022/02/14 17:52:08;;;;;;;9.52;2.70;;;10.30;99.90;;;;;;5034854;28;20079;-86
2022/02/14 17:58:00;;;;;;;;;;;10.20;99.90;;;;;;5035078;28;20095;-86
2022/02/14 18:04:04;;;;;;;;;;;10.10;99.90;;;;;;5034954;28;20032;-84
2022/02/14 18:06:31;;;;;;;9.50;2.50;;;10.10;99.90;;;;;;5034890;28;19915;-84
2022/02/14 18:08:57;;;;;;;8.60;2.45;;;10.00;99.90;;;;;;5017430;28;20032;-85
2022/02/14 18:11:45;;;;;;;4.32;1.52;;;10.00;99.90;;;;;;5041862;28;20045;-85
2022/02/14 18:18:27;;;;;;;12.18;2.35;;;10.00;99.90;;;;;;5077607;28;20074;-88
2022/02/14 18:21:03;;;;;;;11.98;2.67;;;9.90;99.90;;;;;;5058739;28;20028;-89
2022/02/14 18:23:34;;;;;;;11.57;2.17;;;9.90;99.90;;;;;;5060906;28;20048;-86
2022/02/14 18:29:49;;;;;;;4.97;1.50;;;9.90;99.90;;;;;;5089514;28;20017;-88
2022/02/14 18:32:18;;;;;;;8.98;2.05;;;9.90;99.90;;;;;;5084602;28;20034;-85
2022/02/14 18:35:36;;;;;;;6.88;1.95;;;9.90;99.90;;;;;;5060944;28;20033;-86
2022/02/14 18:38:02;;;;;;;9.95;1.75;;;9.90;99.90;;;;;;5058701;28;20090;-85
2022/02/14 18:40:29;;;;;;;10.73;2.25;;;9.90;99.90;;;;;;5045598;28;20056;-87
2022/02/14 18:42:58;;;;;;;8.80;1.80;;;9.90;99.90;;;;;;5062570;28;20030;-89
2022/02/14 18:48:37;;;;;;;7.53;1.85;;;9.90;99.90;;;;;;5036401;28;20044;-91
2022/02/14 18:51:11;;;;;;;6.35;1.52;;;9.90;99.90;;;;;;5058700;28;20024;-89